首页
METAR-TAF:

METAR-TAF

机场 :

奧利安, 紐約州, 美国

纬度: 42-14-28N, 经度: 078-22-17W, 海拔: 651米

当前天气观测

该预报发布于13分钟前的10:15 UTC
风速11节,风向西,有时为21节阵风,在西转西南西北之间变化
温度 -6°C
湿度 100%
气压 997 hPa
能見度: 2.0公里
多云层高于600英尺
阴天层高于1100英尺
小雪

METAR: KOLE 271015Z AUTO 27011G21KT 240V310 1 1/4SM -SN BKN006 OVC011 M06/M06 A2944 RMK AO2

时间: 05:28 (10:28 UTC)


TAF: 丢失

超过4000个机场的气象观测和天气预报(METAR&TAF报告)。

可查询的气象台以黄色和红色小点在地图上表示。

将鼠标移到小点上方,可查看气象台名称。

然后点击查看天气观测和预报。

如需切换地图:点击带黑十字的绿色按钮放大地图;点击带横线的绿色按钮缩小地图;或者点击绿色箭头查看邻近地区的地图。


METAR-TAF: